sensor_id;sensor_type;location;lat;lon;timestamp;P1;durP1;ratioP1;P2;durP2;ratioP2
40863;SDS011;26582;47.524;19.012;2024-02-26T00:01:03;37.50;;;18.67;;
40863;SDS011;26582;47.524;19.012;2024-02-26T00:03:30;35.88;;;17.58;;
40863;SDS011;26582;47.524;19.012;2024-02-26T00:06:00;36.47;;;19.58;;
40863;SDS011;26582;47.524;19.012;2024-02-26T00:08:27;38.53;;;18.50;;
40863;SDS011;26582;47.524;19.012;2024-02-26T00:10:54;34.53;;;18.23;;
40863;SDS011;26582;47.524;19.012;2024-02-26T00:13:21;34.40;;;18.27;;
40863;SDS011;26582;47.524;19.012;2024-02-26T00:15:49;33.83;;;17.13;;
40863;SDS011;26582;47.524;19.012;2024-02-26T00:18:15;35.58;;;18.25;;
40863;SDS011;26582;47.524;19.012;2024-02-26T00:20:42;34.28;;;17.02;;
40863;SDS011;26582;47.524;19.012;2024-02-26T00:23:09;34.40;;;17.42;;
40863;SDS011;26582;47.524;19.012;2024-02-26T00:25:35;34.25;;;18.40;;
40863;SDS011;26582;47.524;19.012;2024-02-26T00:28:03;31.40;;;18.33;;
40863;SDS011;26582;47.524;19.012;2024-02-26T00:30:30;21.17;;;11.70;;
40863;SDS011;26582;47.524;19.012;2024-02-26T00:32:58;35.00;;;17.80;;
40863;SDS011;26582;47.524;19.012;2024-02-26T00:35:24;33.50;;;18.05;;
40863;SDS011;26582;47.524;19.012;2024-02-26T00:37:51;30.75;;;16.80;;
40863;SDS011;26582;47.524;19.012;2024-02-26T00:40:17;26.63;;;14.70;;
40863;SDS011;26582;47.524;19.012;2024-02-26T00:42:44;28.80;;;14.73;;
40863;SDS011;26582;47.524;19.012;2024-02-26T00:45:13;33.45;;;16.77;;
40863;SDS011;26582;47.524;19.012;2024-02-26T00:47:39;31.77;;;15.82;;
40863;SDS011;26582;47.524;19.012;2024-02-26T00:50:08;26.33;;;14.98;;
40863;SDS011;26582;47.524;19.012;2024-02-26T00:52:35;21.60;;;11.57;;
40863;SDS011;26582;47.524;19.012;2024-02-26T00:55:02;30.10;;;14.70;;
40863;SDS011;26582;47.524;19.012;2024-02-26T00:57:29;27.83;;;14.63;;
40863;SDS011;26582;47.524;19.012;2024-02-26T00:59:56;30.00;;;15.48;;
40863;SDS011;26582;47.524;19.012;2024-02-26T01:02:22;29.50;;;15.52;;
40863;SDS011;26582;47.524;19.012;2024-02-26T01:04:49;27.27;;;13.55;;
40863;SDS011;26582;47.524;19.012;2024-02-26T01:07:17;28.73;;;13.90;;
40863;SDS011;26582;47.524;19.012;2024-02-26T01:09:45;30.05;;;15.23;;
40863;SDS011;26582;47.524;19.012;2024-02-26T01:12:12;26.75;;;14.35;;
40863;SDS011;26582;47.524;19.012;2024-02-26T01:14:38;26.67;;;14.63;;
40863;SDS011;26582;47.524;19.012;2024-02-26T01:17:05;27.48;;;13.23;;
40863;SDS011;26582;47.524;19.012;2024-02-26T01:19:31;27.77;;;13.32;;
40863;SDS011;26582;47.524;19.012;2024-02-26T01:21:58;30.83;;;14.77;;
40863;SDS011;26582;47.524;19.012;2024-02-26T01:24:26;30.40;;;14.82;;
40863;SDS011;26582;47.524;19.012;2024-02-26T01:26:53;33.88;;;15.55;;
40863;SDS011;26582;47.524;19.012;2024-02-26T01:29:20;29.45;;;14.15;;
40863;SDS011;26582;47.524;19.012;2024-02-26T01:31:46;26.15;;;12.88;;
40863;SDS011;26582;47.524;19.012;2024-02-26T01:34:13;26.95;;;12.50;;
40863;SDS011;26582;47.524;19.012;2024-02-26T01:36:40;24.77;;;12.93;;
40863;SDS011;26582;47.524;19.012;2024-02-26T01:39:06;24.55;;;12.85;;
40863;SDS011;26582;47.524;19.012;2024-02-26T01:41:38;30.10;;;14.60;;
40863;SDS011;26582;47.524;19.012;2024-02-26T01:44:04;23.85;;;12.27;;
40863;SDS011;26582;47.524;19.012;2024-02-26T01:46:34;26.48;;;13.55;;
40863;SDS011;26582;47.524;19.012;2024-02-26T01:49:02;32.05;;;14.68;;
40863;SDS011;26582;47.524;19.012;2024-02-26T01:51:29;26.27;;;13.82;;
40863;SDS011;26582;47.524;19.012;2024-02-26T01:53:57;28.67;;;14.50;;
40863;SDS011;26582;47.524;19.012;2024-02-26T01:56:24;27.30;;;14.27;;
40863;SDS011;26582;47.524;19.012;2024-02-26T01:58:57;34.13;;;15.68;;
40863;SDS011;26582;47.524;19.012;2024-02-26T02:01:24;28.83;;;14.73;;
40863;SDS011;26582;47.524;19.012;2024-02-26T02:06:19;29.00;;;14.63;;
40863;SDS011;26582;47.524;19.012;2024-02-26T02:08:46;29.10;;;14.20;;
40863;SDS011;26582;47.524;19.012;2024-02-26T02:11:14;32.72;;;16.27;;
40863;SDS011;26582;47.524;19.012;2024-02-26T02:13:40;28.08;;;14.85;;
40863;SDS011;26582;47.524;19.012;2024-02-26T02:16:09;27.25;;;15.27;;
40863;SDS011;26582;47.524;19.012;2024-02-26T02:18:35;31.98;;;15.68;;
40863;SDS011;26582;47.524;19.012;2024-02-26T02:21:03;33.65;;;17.20;;
40863;SDS011;26582;47.524;19.012;2024-02-26T02:23:30;32.78;;;15.25;;
40863;SDS011;26582;47.524;19.012;2024-02-26T02:25:57;33.53;;;17.17;;
40863;SDS011;26582;47.524;19.012;2024-02-26T02:28:25;31.83;;;16.70;;
40863;SDS011;26582;47.524;19.012;2024-02-26T02:30:53;36.25;;;17.40;;
40863;SDS011;26582;47.524;19.012;2024-02-26T02:33:20;36.65;;;19.02;;
40863;SDS011;26582;47.524;19.012;2024-02-26T02:35:48;34.58;;;17.63;;
40863;SDS011;26582;47.524;19.012;2024-02-26T02:38:17;32.78;;;17.80;;
40863;SDS011;26582;47.524;19.012;2024-02-26T02:40:43;37.42;;;17.92;;
40863;SDS011;26582;47.524;19.012;2024-02-26T02:43:10;31.90;;;16.65;;
40863;SDS011;26582;47.524;19.012;2024-02-26T02:45:37;30.38;;;14.70;;
40863;SDS011;26582;47.524;19.012;2024-02-26T02:48:04;29.10;;;15.98;;
40863;SDS011;26582;47.524;19.012;2024-02-26T02:50:31;32.20;;;16.75;;
40863;SDS011;26582;47.524;19.012;2024-02-26T02:52:58;29.05;;;16.13;;
40863;SDS011;26582;47.524;19.012;2024-02-26T02:55:26;31.30;;;15.50;;
40863;SDS011;26582;47.524;19.012;2024-02-26T02:57:53;33.40;;;17.08;;
40863;SDS011;26582;47.524;19.012;2024-02-26T03:00:20;33.67;;;17.38;;
40863;SDS011;26582;47.524;19.012;2024-02-26T03:02:48;38.22;;;18.55;;
40863;SDS011;26582;47.524;19.012;2024-02-26T03:05:14;32.08;;;17.55;;
40863;SDS011;26582;47.524;19.012;2024-02-26T03:07:41;31.90;;;16.98;;
40863;SDS011;26582;47.524;19.012;2024-02-26T03:10:08;32.47;;;17.48;;
40863;SDS011;26582;47.524;19.012;2024-02-26T03:12:36;30.00;;;17.58;;
40863;SDS011;26582;47.524;19.012;2024-02-26T03:15:03;30.25;;;15.98;;
40863;SDS011;26582;47.524;19.012;2024-02-26T03:17:30;32.45;;;17.88;;
40863;SDS011;26582;47.524;19.012;2024-02-26T03:19:57;30.52;;;16.80;;
40863;SDS011;26582;47.524;19.012;2024-02-26T03:22:23;66.93;;;31.83;;
40863;SDS011;26582;47.524;19.012;2024-02-26T03:24:50;32.67;;;16.30;;
40863;SDS011;26582;47.524;19.012;2024-02-26T03:27:16;28.60;;;15.32;;
40863;SDS011;26582;47.524;19.012;2024-02-26T03:29:44;29.48;;;16.10;;
40863;SDS011;26582;47.524;19.012;2024-02-26T03:32:12;29.42;;;16.48;;
40863;SDS011;26582;47.524;19.012;2024-02-26T03:34:39;28.50;;;15.98;;
40863;SDS011;26582;47.524;19.012;2024-02-26T03:37:06;27.52;;;14.82;;
40863;SDS011;26582;47.524;19.012;2024-02-26T03:39:34;23.27;;;14.00;;
40863;SDS011;26582;47.524;19.012;2024-02-26T03:42:01;24.80;;;13.85;;
40863;SDS011;26582;47.524;19.012;2024-02-26T03:44:27;26.42;;;14.57;;
40863;SDS011;26582;47.524;19.012;2024-02-26T03:46:55;28.38;;;15.80;;
40863;SDS011;26582;47.524;19.012;2024-02-26T03:49:22;28.35;;;15.50;;
40863;SDS011;26582;47.524;19.012;2024-02-26T03:51:49;29.33;;;15.73;;
40863;SDS011;26582;47.524;19.012;2024-02-26T03:54:15;31.27;;;16.70;;
40863;SDS011;26582;47.524;19.012;2024-02-26T03:56:42;29.65;;;16.08;;
40863;SDS011;26582;47.524;19.012;2024-02-26T03:59:09;29.20;;;15.68;;
40863;SDS011;26582;47.524;19.012;2024-02-26T04:01:35;26.55;;;15.00;;
40863;SDS011;26582;47.524;19.012;2024-02-26T04:04:03;30.35;;;16.95;;
40863;SDS011;26582;47.524;19.012;2024-02-26T04:06:30;33.15;;;16.52;;
40863;SDS011;26582;47.524;19.012;2024-02-26T04:08:57;29.65;;;16.88;;
40863;SDS011;26582;47.524;19.012;2024-02-26T04:11:23;29.75;;;15.90;;
40863;SDS011;26582;47.524;19.012;2024-02-26T04:13:50;28.38;;;16.23;;
40863;SDS011;26582;47.524;19.012;2024-02-26T04:16:17;30.45;;;16.55;;
40863;SDS011;26582;47.524;19.012;2024-02-26T04:18:44;28.98;;;15.85;;
40863;SDS011;26582;47.524;19.012;2024-02-26T04:21:12;28.60;;;16.77;;
40863;SDS011;26582;47.524;19.012;2024-02-26T04:23:38;29.15;;;16.15;;
40863;SDS011;26582;47.524;19.012;2024-02-26T04:26:05;29.20;;;16.92;;
40863;SDS011;26582;47.524;19.012;2024-02-26T04:28:32;30.63;;;16.38;;
40863;SDS011;26582;47.524;19.012;2024-02-26T04:30:58;28.00;;;15.70;;
40863;SDS011;26582;47.524;19.012;2024-02-26T04:33:25;27.88;;;16.45;;
40863;SDS011;26582;47.524;19.012;2024-02-26T04:35:52;25.55;;;15.20;;
40863;SDS011;26582;47.524;19.012;2024-02-26T04:38:20;27.88;;;15.07;;
40863;SDS011;26582;47.524;19.012;2024-02-26T04:40:47;29.33;;;16.50;;
40863;SDS011;26582;47.524;19.012;2024-02-26T04:43:14;25.77;;;14.38;;
40863;SDS011;26582;47.524;19.012;2024-02-26T04:45:40;24.00;;;13.88;;
40863;SDS011;26582;47.524;19.012;2024-02-26T04:48:07;23.60;;;13.50;;
40863;SDS011;26582;47.524;19.012;2024-02-26T04:50:34;23.23;;;13.70;;
40863;SDS011;26582;47.524;19.012;2024-02-26T04:53:00;21.90;;;12.85;;
40863;SDS011;26582;47.524;19.012;2024-02-26T04:55:29;25.17;;;13.75;;
40863;SDS011;26582;47.524;19.012;2024-02-26T04:57:55;23.42;;;13.75;;
40863;SDS011;26582;47.524;19.012;2024-02-26T05:00:22;24.38;;;13.50;;
40863;SDS011;26582;47.524;19.012;2024-02-26T05:02:49;23.85;;;13.43;;
40863;SDS011;26582;47.524;19.012;2024-02-26T05:05:15;24.33;;;14.25;;
40863;SDS011;26582;47.524;19.012;2024-02-26T05:07:43;23.42;;;13.57;;
40863;SDS011;26582;47.524;19.012;2024-02-26T05:10:10;22.80;;;13.68;;
40863;SDS011;26582;47.524;19.012;2024-02-26T05:12:38;23.17;;;14.23;;
40863;SDS011;26582;47.524;19.012;2024-02-26T05:15:08;22.85;;;14.13;;
40863;SDS011;26582;47.524;19.012;2024-02-26T05:17:35;24.83;;;14.70;;
40863;SDS011;26582;47.524;19.012;2024-02-26T05:20:02;25.13;;;13.98;;
40863;SDS011;26582;47.524;19.012;2024-02-26T05:22:33;24.38;;;14.40;;
40863;SDS011;26582;47.524;19.012;2024-02-26T05:24:59;25.63;;;13.77;;
40863;SDS011;26582;47.524;19.012;2024-02-26T05:27:26;25.85;;;13.80;;
40863;SDS011;26582;47.524;19.012;2024-02-26T05:29:54;25.33;;;14.35;;
40863;SDS011;26582;47.524;19.012;2024-02-26T05:32:21;23.15;;;13.50;;
40863;SDS011;26582;47.524;19.012;2024-02-26T05:34:48;26.08;;;13.70;;
40863;SDS011;26582;47.524;19.012;2024-02-26T05:37:14;24.80;;;13.07;;
40863;SDS011;26582;47.524;19.012;2024-02-26T05:39:41;22.48;;;13.45;;
40863;SDS011;26582;47.524;19.012;2024-02-26T05:42:08;26.73;;;13.90;;
40863;SDS011;26582;47.524;19.012;2024-02-26T05:44:35;23.92;;;13.02;;
40863;SDS011;26582;47.524;19.012;2024-02-26T05:47:03;22.45;;;12.68;;
40863;SDS011;26582;47.524;19.012;2024-02-26T05:49:30;23.45;;;13.27;;
40863;SDS011;26582;47.524;19.012;2024-02-26T05:51:57;23.25;;;12.65;;
40863;SDS011;26582;47.524;19.012;2024-02-26T05:54:24;23.35;;;12.57;;
40863;SDS011;26582;47.524;19.012;2024-02-26T05:56:50;24.00;;;12.43;;
40863;SDS011;26582;47.524;19.012;2024-02-26T05:59:17;26.75;;;13.60;;
40863;SDS011;26582;47.524;19.012;2024-02-26T06:01:44;24.83;;;13.80;;
40863;SDS011;26582;47.524;19.012;2024-02-26T06:04:12;22.50;;;12.38;;
40863;SDS011;26582;47.524;19.012;2024-02-26T06:06:38;25.85;;;13.07;;
40863;SDS011;26582;47.524;19.012;2024-02-26T06:09:05;22.58;;;12.20;;
40863;SDS011;26582;47.524;19.012;2024-02-26T06:11:32;22.15;;;12.52;;
40863;SDS011;26582;47.524;19.012;2024-02-26T06:13:58;26.65;;;13.80;;
40863;SDS011;26582;47.524;19.012;2024-02-26T06:16:25;25.33;;;13.23;;
40863;SDS011;26582;47.524;19.012;2024-02-26T06:18:52;24.38;;;13.02;;
40863;SDS011;26582;47.524;19.012;2024-02-26T06:21:20;22.15;;;12.80;;
40863;SDS011;26582;47.524;19.012;2024-02-26T06:23:47;21.40;;;12.32;;
40863;SDS011;26582;47.524;19.012;2024-02-26T06:26:14;22.73;;;13.27;;
40863;SDS011;26582;47.524;19.012;2024-02-26T06:28:41;22.10;;;12.30;;
40863;SDS011;26582;47.524;19.012;2024-02-26T06:31:08;23.95;;;12.27;;
40863;SDS011;26582;47.524;19.012;2024-02-26T06:33:35;22.25;;;12.32;;
40863;SDS011;26582;47.524;19.012;2024-02-26T06:36:01;21.80;;;12.32;;
40863;SDS011;26582;47.524;19.012;2024-02-26T06:38:31;24.50;;;12.45;;
40863;SDS011;26582;47.524;19.012;2024-02-26T06:40:57;26.33;;;12.90;;
40863;SDS011;26582;47.524;19.012;2024-02-26T06:43:24;22.17;;;12.90;;
40863;SDS011;26582;47.524;19.012;2024-02-26T06:45:51;24.00;;;13.35;;
40863;SDS011;26582;47.524;19.012;2024-02-26T06:48:17;27.75;;;15.15;;
40863;SDS011;26582;47.524;19.012;2024-02-26T06:50:44;29.45;;;14.40;;
40863;SDS011;26582;47.524;19.012;2024-02-26T06:53:11;24.77;;;14.55;;
40863;SDS011;26582;47.524;19.012;2024-02-26T06:55:39;25.30;;;13.52;;
40863;SDS011;26582;47.524;19.012;2024-02-26T06:58:05;28.63;;;14.63;;
40863;SDS011;26582;47.524;19.012;2024-02-26T07:00:32;31.17;;;16.10;;
40863;SDS011;26582;47.524;19.012;2024-02-26T07:02:59;27.20;;;15.27;;
40863;SDS011;26582;47.524;19.012;2024-02-26T07:05:25;28.75;;;15.00;;
40863;SDS011;26582;47.524;19.012;2024-02-26T07:07:52;28.38;;;15.07;;
40863;SDS011;26582;47.524;19.012;2024-02-26T07:10:19;31.63;;;16.42;;
40863;SDS011;26582;47.524;19.012;2024-02-26T07:12:47;28.88;;;15.73;;
40863;SDS011;26582;47.524;19.012;2024-02-26T07:15:14;30.88;;;15.93;;
40863;SDS011;26582;47.524;19.012;2024-02-26T07:17:41;29.98;;;15.98;;
40863;SDS011;26582;47.524;19.012;2024-02-26T07:20:12;31.23;;;16.95;;
40863;SDS011;26582;47.524;19.012;2024-02-26T07:22:39;32.78;;;17.50;;
40863;SDS011;26582;47.524;19.012;2024-02-26T07:25:07;31.27;;;17.08;;
40863;SDS011;26582;47.524;19.012;2024-02-26T07:27:38;32.53;;;17.17;;
40863;SDS011;26582;47.524;19.012;2024-02-26T07:30:07;30.05;;;16.92;;
40863;SDS011;26582;47.524;19.012;2024-02-26T07:32:34;33.33;;;18.25;;
40863;SDS011;26582;47.524;19.012;2024-02-26T07:35:00;35.30;;;18.50;;
40863;SDS011;26582;47.524;19.012;2024-02-26T07:37:26;33.45;;;17.80;;
40863;SDS011;26582;47.524;19.012;2024-02-26T07:39:53;36.28;;;18.75;;
40863;SDS011;26582;47.524;19.012;2024-02-26T07:42:20;33.63;;;18.85;;
40863;SDS011;26582;47.524;19.012;2024-02-26T07:44:47;35.05;;;18.95;;
40863;SDS011;26582;47.524;19.012;2024-02-26T07:47:15;38.15;;;20.58;;
40863;SDS011;26582;47.524;19.012;2024-02-26T07:49:41;39.40;;;19.40;;
40863;SDS011;26582;47.524;19.012;2024-02-26T07:52:07;41.92;;;22.30;;
40863;SDS011;26582;47.524;19.012;2024-02-26T07:54:34;40.33;;;22.17;;
40863;SDS011;26582;47.524;19.012;2024-02-26T07:57:00;41.55;;;22.63;;
40863;SDS011;26582;47.524;19.012;2024-02-26T07:59:30;43.63;;;22.38;;
40863;SDS011;26582;47.524;19.012;2024-02-26T08:01:57;41.65;;;20.27;;
40863;SDS011;26582;47.524;19.012;2024-02-26T08:04:25;42.90;;;22.23;;
40863;SDS011;26582;47.524;19.012;2024-02-26T08:06:52;41.30;;;21.60;;
40863;SDS011;26582;47.524;19.012;2024-02-26T08:09:18;43.63;;;22.02;;
40863;SDS011;26582;47.524;19.012;2024-02-26T08:11:45;46.15;;;23.52;;
40863;SDS011;26582;47.524;19.012;2024-02-26T08:14:12;45.15;;;23.25;;
40863;SDS011;26582;47.524;19.012;2024-02-26T08:16:39;43.83;;;22.40;;
40863;SDS011;26582;47.524;19.012;2024-02-26T08:19:05;44.50;;;22.10;;
40863;SDS011;26582;47.524;19.012;2024-02-26T08:21:33;42.25;;;22.23;;
40863;SDS011;26582;47.524;19.012;2024-02-26T08:24:02;45.70;;;22.75;;
40863;SDS011;26582;47.524;19.012;2024-02-26T08:26:28;41.22;;;21.75;;
40863;SDS011;26582;47.524;19.012;2024-02-26T08:28:55;39.92;;;23.13;;
40863;SDS011;26582;47.524;19.012;2024-02-26T08:31:23;41.08;;;22.23;;
40863;SDS011;26582;47.524;19.012;2024-02-26T08:33:50;41.65;;;22.77;;
40863;SDS011;26582;47.524;19.012;2024-02-26T08:36:16;42.38;;;22.67;;
40863;SDS011;26582;47.524;19.012;2024-02-26T08:38:44;46.30;;;23.80;;
40863;SDS011;26582;47.524;19.012;2024-02-26T08:41:11;41.03;;;22.85;;
40863;SDS011;26582;47.524;19.012;2024-02-26T08:43:38;43.17;;;24.75;;
40863;SDS011;26582;47.524;19.012;2024-02-26T08:46:08;42.03;;;23.13;;
40863;SDS011;26582;47.524;19.012;2024-02-26T08:48:35;40.38;;;22.73;;
40863;SDS011;26582;47.524;19.012;2024-02-26T08:51:04;44.28;;;23.65;;
40863;SDS011;26582;47.524;19.012;2024-02-26T08:53:31;43.33;;;24.02;;
40863;SDS011;26582;47.524;19.012;2024-02-26T08:55:59;45.47;;;24.90;;
40863;SDS011;26582;47.524;19.012;2024-02-26T08:58:26;45.22;;;23.67;;
40863;SDS011;26582;47.524;19.012;2024-02-26T09:00:53;42.17;;;22.70;;
40863;SDS011;26582;47.524;19.012;2024-02-26T09:03:20;39.70;;;22.20;;
40863;SDS011;26582;47.524;19.012;2024-02-26T09:05:47;42.58;;;22.58;;
40863;SDS011;26582;47.524;19.012;2024-02-26T09:08:14;41.20;;;21.27;;
40863;SDS011;26582;47.524;19.012;2024-02-26T09:10:41;42.67;;;23.63;;
40863;SDS011;26582;47.524;19.012;2024-02-26T09:13:09;44.05;;;22.85;;
40863;SDS011;26582;47.524;19.012;2024-02-26T09:15:36;40.90;;;22.83;;
40863;SDS011;26582;47.524;19.012;2024-02-26T09:18:02;38.55;;;21.65;;
40863;SDS011;26582;47.524;19.012;2024-02-26T09:20:29;42.85;;;23.48;;
40863;SDS011;26582;47.524;19.012;2024-02-26T09:22:56;44.22;;;24.02;;
40863;SDS011;26582;47.524;19.012;2024-02-26T09:25:23;40.80;;;23.25;;
40863;SDS011;26582;47.524;19.012;2024-02-26T09:27:49;43.25;;;22.80;;
40863;SDS011;26582;47.524;19.012;2024-02-26T09:30:17;41.72;;;22.80;;
40863;SDS011;26582;47.524;19.012;2024-02-26T09:32:45;40.90;;;23.33;;
40863;SDS011;26582;47.524;19.012;2024-02-26T09:35:13;48.80;;;26.90;;
40863;SDS011;26582;47.524;19.012;2024-02-26T09:37:39;41.38;;;22.92;;
40863;SDS011;26582;47.524;19.012;2024-02-26T09:40:09;38.15;;;23.50;;
40863;SDS011;26582;47.524;19.012;2024-02-26T09:42:37;40.92;;;23.08;;
40863;SDS011;26582;47.524;19.012;2024-02-26T09:45:10;39.72;;;22.83;;
40863;SDS011;26582;47.524;19.012;2024-02-26T09:47:40;41.38;;;22.63;;
40863;SDS011;26582;47.524;19.012;2024-02-26T09:50:08;39.00;;;22.48;;
40863;SDS011;26582;47.524;19.012;2024-02-26T09:55:04;43.38;;;23.52;;
40863;SDS011;26582;47.524;19.012;2024-02-26T10:00:00;42.80;;;22.60;;
40863;SDS011;26582;47.524;19.012;2024-02-26T10:02:32;42.20;;;23.50;;
40863;SDS011;26582;47.524;19.012;2024-02-26T10:05:03;39.20;;;21.38;;
40863;SDS011;26582;47.524;19.012;2024-02-26T10:07:33;38.70;;;22.17;;
40863;SDS011;26582;47.524;19.012;2024-02-26T10:10:02;44.10;;;23.10;;
40863;SDS011;26582;47.524;19.012;2024-02-26T10:12:30;36.85;;;22.17;;
40863;SDS011;26582;47.524;19.012;2024-02-26T10:14:57;35.72;;;18.67;;
40863;SDS011;26582;47.524;19.012;2024-02-26T10:17:24;37.60;;;19.23;;
40863;SDS011;26582;47.524;19.012;2024-02-26T10:19:51;31.63;;;17.95;;
40863;SDS011;26582;47.524;19.012;2024-02-26T10:22:22;32.90;;;18.52;;
40863;SDS011;26582;47.524;19.012;2024-02-26T10:24:49;39.53;;;20.17;;
40863;SDS011;26582;47.524;19.012;2024-02-26T10:27:16;36.20;;;21.20;;
40863;SDS011;26582;47.524;19.012;2024-02-26T10:29:45;40.60;;;21.77;;
40863;SDS011;26582;47.524;19.012;2024-02-26T10:32:12;35.95;;;20.88;;
40863;SDS011;26582;47.524;19.012;2024-02-26T10:34:39;37.30;;;20.42;;
40863;SDS011;26582;47.524;19.012;2024-02-26T10:37:06;35.60;;;21.17;;
40863;SDS011;26582;47.524;19.012;2024-02-26T10:39:37;38.22;;;20.25;;
40863;SDS011;26582;47.524;19.012;2024-02-26T10:42:04;31.35;;;18.23;;
40863;SDS011;26582;47.524;19.012;2024-02-26T10:44:35;37.75;;;19.02;;
40863;SDS011;26582;47.524;19.012;2024-02-26T10:47:01;24.70;;;15.88;;
40863;SDS011;26582;47.524;19.012;2024-02-26T10:49:29;28.70;;;18.48;;
40863;SDS011;26582;47.524;19.012;2024-02-26T10:51:56;22.27;;;14.20;;
40863;SDS011;26582;47.524;19.012;2024-02-26T10:54:24;26.85;;;16.08;;
40863;SDS011;26582;47.524;19.012;2024-02-26T10:56:54;24.70;;;15.20;;
40863;SDS011;26582;47.524;19.012;2024-02-26T10:59:23;23.05;;;14.20;;
40863;SDS011;26582;47.524;19.012;2024-02-26T11:01:49;25.65;;;14.80;;
40863;SDS011;26582;47.524;19.012;2024-02-26T11:04:17;24.88;;;15.43;;
40863;SDS011;26582;47.524;19.012;2024-02-26T11:06:44;26.45;;;15.98;;
40863;SDS011;26582;47.524;19.012;2024-02-26T11:09:12;33.58;;;16.48;;
40863;SDS011;26582;47.524;19.012;2024-02-26T11:11:40;23.50;;;14.48;;
40863;SDS011;26582;47.524;19.012;2024-02-26T11:14:09;26.65;;;15.82;;
40863;SDS011;26582;47.524;19.012;2024-02-26T11:16:39;25.02;;;15.95;;
40863;SDS011;26582;47.524;19.012;2024-02-26T11:19:06;21.23;;;13.18;;
40863;SDS011;26582;47.524;19.012;2024-02-26T11:21:35;22.98;;;13.65;;
40863;SDS011;26582;47.524;19.012;2024-02-26T11:24:07;22.98;;;13.77;;
40863;SDS011;26582;47.524;19.012;2024-02-26T11:26:34;27.02;;;14.77;;
40863;SDS011;26582;47.524;19.012;2024-02-26T11:29:05;21.40;;;13.25;;
40863;SDS011;26582;47.524;19.012;2024-02-26T11:31:37;21.27;;;12.88;;
40863;SDS011;26582;47.524;19.012;2024-02-26T11:34:04;20.60;;;12.65;;
40863;SDS011;26582;47.524;19.012;2024-02-26T11:36:33;20.98;;;12.13;;
40863;SDS011;26582;47.524;19.012;2024-02-26T11:39:00;21.17;;;12.52;;
40863;SDS011;26582;47.524;19.012;2024-02-26T11:41:27;19.80;;;11.57;;
40863;SDS011;26582;47.524;19.012;2024-02-26T11:43:57;24.02;;;13.63;;
40863;SDS011;26582;47.524;19.012;2024-02-26T11:46:27;25.38;;;12.50;;
40863;SDS011;26582;47.524;19.012;2024-02-26T11:51:26;16.63;;;9.93;;
40863;SDS011;26582;47.524;19.012;2024-02-26T11:53:54;15.10;;;9.70;;
40863;SDS011;26582;47.524;19.012;2024-02-26T11:56:24;18.58;;;11.48;;
40863;SDS011;26582;47.524;19.012;2024-02-26T11:58:56;19.95;;;11.75;;
40863;SDS011;26582;47.524;19.012;2024-02-26T12:04:13;13.00;;;7.72;;
40863;SDS011;26582;47.524;19.012;2024-02-26T12:06:43;12.80;;;6.15;;
40863;SDS011;26582;47.524;19.012;2024-02-26T12:09:11;12.88;;;7.47;;
40863;SDS011;26582;47.524;19.012;2024-02-26T12:11:39;12.27;;;8.00;;
40863;SDS011;26582;47.524;19.012;2024-02-26T12:14:07;13.70;;;7.95;;
40863;SDS011;26582;47.524;19.012;2024-02-26T12:16:35;12.57;;;8.18;;
40863;SDS011;26582;47.524;19.012;2024-02-26T12:19:05;16.00;;;8.13;;
40863;SDS011;26582;47.524;19.012;2024-02-26T12:21:33;13.68;;;9.57;;
40863;SDS011;26582;47.524;19.012;2024-02-26T12:24:11;13.70;;;7.90;;
40863;SDS011;26582;47.524;19.012;2024-02-26T12:26:39;15.02;;;9.07;;
40863;SDS011;26582;47.524;19.012;2024-02-26T12:29:06;12.55;;;7.68;;
40863;SDS011;26582;47.524;19.012;2024-02-26T12:31:33;13.18;;;8.35;;
40863;SDS011;26582;47.524;19.012;2024-02-26T12:34:02;14.43;;;7.65;;
40863;SDS011;26582;47.524;19.012;2024-02-26T12:36:30;12.68;;;8.20;;
40863;SDS011;26582;47.524;19.012;2024-02-26T12:38:57;17.27;;;9.07;;
40863;SDS011;26582;47.524;19.012;2024-02-26T12:41:25;14.75;;;8.45;;
40863;SDS011;26582;47.524;19.012;2024-02-26T12:43:52;13.73;;;8.13;;
40863;SDS011;26582;47.524;19.012;2024-02-26T12:46:19;14.52;;;8.88;;
40863;SDS011;26582;47.524;19.012;2024-02-26T12:48:46;13.25;;;7.32;;
40863;SDS011;26582;47.524;19.012;2024-02-26T12:51:14;11.40;;;7.30;;
40863;SDS011;26582;47.524;19.012;2024-02-26T12:53:43;12.52;;;7.03;;
40863;SDS011;26582;47.524;19.012;2024-02-26T12:56:11;11.30;;;6.67;;
40863;SDS011;26582;47.524;19.012;2024-02-26T12:58:38;10.93;;;6.95;;
40863;SDS011;26582;47.524;19.012;2024-02-26T13:01:06;10.85;;;6.90;;
40863;SDS011;26582;47.524;19.012;2024-02-26T13:03:39;9.75;;;7.35;;
40863;SDS011;26582;47.524;19.012;2024-02-26T13:06:07;13.23;;;6.88;;
40863;SDS011;26582;47.524;19.012;2024-02-26T13:08:34;9.50;;;5.95;;
40863;SDS011;26582;47.524;19.012;2024-02-26T13:11:02;9.77;;;5.18;;
40863;SDS011;26582;47.524;19.012;2024-02-26T13:13:29;8.38;;;5.63;;
40863;SDS011;26582;47.524;19.012;2024-02-26T13:16:01;10.77;;;7.30;;
40863;SDS011;26582;47.524;19.012;2024-02-26T13:18:29;13.68;;;8.18;;
40863;SDS011;26582;47.524;19.012;2024-02-26T13:21:06;10.00;;;6.85;;
40863;SDS011;26582;47.524;19.012;2024-02-26T13:23:34;11.35;;;7.50;;
40863;SDS011;26582;47.524;19.012;2024-02-26T13:26:01;12.00;;;7.78;;
40863;SDS011;26582;47.524;19.012;2024-02-26T13:28:29;11.68;;;6.60;;
40863;SDS011;26582;47.524;19.012;2024-02-26T13:30:56;10.50;;;6.55;;
40863;SDS011;26582;47.524;19.012;2024-02-26T13:35:52;9.27;;;5.50;;
40863;SDS011;26582;47.524;19.012;2024-02-26T13:38:21;7.53;;;5.60;;
40863;SDS011;26582;47.524;19.012;2024-02-26T13:40:48;8.10;;;6.20;;
40863;SDS011;26582;47.524;19.012;2024-02-26T13:43:17;8.65;;;5.88;;
40863;SDS011;26582;47.524;19.012;2024-02-26T13:45:44;7.93;;;6.13;;
40863;SDS011;26582;47.524;19.012;2024-02-26T13:48:11;7.40;;;6.05;;
40863;SDS011;26582;47.524;19.012;2024-02-26T13:50:39;8.98;;;5.82;;
40863;SDS011;26582;47.524;19.012;2024-02-26T13:53:06;8.07;;;6.40;;
40863;SDS011;26582;47.524;19.012;2024-02-26T13:55:33;8.07;;;6.63;;
40863;SDS011;26582;47.524;19.012;2024-02-26T13:58:00;7.95;;;6.82;;
40863;SDS011;26582;47.524;19.012;2024-02-26T14:00:28;8.52;;;6.82;;
40863;SDS011;26582;47.524;19.012;2024-02-26T14:02:57;8.55;;;6.95;;
40863;SDS011;26582;47.524;19.012;2024-02-26T14:05:24;8.68;;;6.97;;
40863;SDS011;26582;47.524;19.012;2024-02-26T14:07:50;16.33;;;7.60;;
40863;SDS011;26582;47.524;19.012;2024-02-26T14:10:18;9.35;;;7.13;;
40863;SDS011;26582;47.524;19.012;2024-02-26T14:12:45;10.38;;;7.03;;
40863;SDS011;26582;47.524;19.012;2024-02-26T14:15:12;10.55;;;7.28;;
40863;SDS011;26582;47.524;19.012;2024-02-26T14:17:40;9.80;;;7.15;;
40863;SDS011;26582;47.524;19.012;2024-02-26T14:22:35;10.15;;;7.47;;
40863;SDS011;26582;47.524;19.012;2024-02-26T14:25:02;10.32;;;7.75;;
40863;SDS011;26582;47.524;19.012;2024-02-26T14:27:29;10.70;;;7.53;;
40863;SDS011;26582;47.524;19.012;2024-02-26T14:29:55;10.18;;;7.38;;